createdAt,value
2017-04-30T00:00:53.436Z,80.70
2017-04-30T00:03:21.751Z,80.60
2017-04-30T00:05:50.044Z,80.70
2017-04-30T00:08:18.336Z,81.40
2017-04-30T00:10:46.643Z,82.10
2017-04-30T00:13:14.938Z,82.20
2017-04-30T00:15:43.255Z,81.50
2017-04-30T00:18:12.281Z,81.30
2017-04-30T00:20:40.564Z,81.00
2017-04-30T00:23:09.611Z,80.70
2017-04-30T00:25:37.904Z,80.90
2017-04-30T00:28:06.226Z,81.10
2017-04-30T00:30:34.519Z,80.80
2017-04-30T00:33:02.808Z,80.40
2017-04-30T00:35:31.122Z,81.00
2017-04-30T00:37:59.407Z,81.90
2017-04-30T00:40:27.735Z,82.50
2017-04-30T00:42:56.015Z,82.80
2017-04-30T00:45:24.298Z,83.20
2017-04-30T00:47:52.598Z,83.00
2017-04-30T00:50:20.883Z,82.50
2017-04-30T00:52:49.194Z,83.10
2017-04-30T00:55:17.484Z,82.90
2017-04-30T00:57:45.767Z,83.10
2017-04-30T01:03:05.668Z,83.70
2017-04-30T01:05:33.987Z,83.40
2017-04-30T01:08:03.018Z,83.70
2017-04-30T01:10:32.051Z,83.50
2017-04-30T01:13:00.354Z,84.20
2017-04-30T01:15:28.644Z,84.50
2017-04-30T01:17:56.976Z,84.40
2017-04-30T01:20:25.272Z,84.30
2017-04-30T01:22:54.305Z,84.00
2017-04-30T01:25:22.616Z,83.50
2017-04-30T01:27:50.911Z,83.50
2017-04-30T01:30:19.228Z,83.40
2017-04-30T01:32:48.259Z,83.30
2017-04-30T01:35:16.557Z,83.50
2017-04-30T01:37:44.870Z,83.70
2017-04-30T01:40:13.497Z,84.00
2017-04-30T01:42:42.558Z,84.70
2017-04-30T01:45:10.844Z,85.10
2017-04-30T01:47:39.127Z,85.90
2017-04-30T01:50:08.185Z,87.60
2017-04-30T01:52:36.472Z,86.90
2017-04-30T01:55:04.792Z,87.40
2017-04-30T01:57:33.083Z,88.30
2017-04-30T02:00:01.375Z,89.00
2017-04-30T02:02:29.689Z,88.80
2017-04-30T02:04:58.721Z,88.80
2017-04-30T02:07:27.050Z,88.80
2017-04-30T02:09:56.089Z,89.00
2017-04-30T02:12:24.379Z,89.00
2017-04-30T02:14:52.691Z,89.30
2017-04-30T02:17:20.985Z,89.60
2017-04-30T02:19:49.271Z,89.90
2017-04-30T02:22:18.342Z,90.00
2017-04-30T02:24:46.636Z,90.10
2017-04-30T02:27:14.929Z,90.10
2017-04-30T02:29:43.247Z,90.10
2017-04-30T02:32:11.532Z,90.30
2017-04-30T02:34:39.832Z,90.30
2017-04-30T02:37:08.155Z,90.00
2017-04-30T02:39:36.442Z,89.80
2017-04-30T02:42:05.481Z,90.40
2017-04-30T02:44:33.807Z,90.40
2017-04-30T02:47:02.831Z,90.60
2017-04-30T02:49:31.152Z,90.90
2017-04-30T02:51:59.527Z,90.70
2017-04-30T02:54:27.822Z,90.90
2017-04-30T02:56:56.127Z,90.80
2017-04-30T02:59:24.436Z,90.70
2017-04-30T03:01:52.724Z,90.90
2017-04-30T03:04:21.016Z,91.30
2017-04-30T03:06:49.339Z,91.60
2017-04-30T03:09:17.627Z,92.00
2017-04-30T03:11:45.919Z,92.10
2017-04-30T03:14:14.979Z,92.30
2017-04-30T03:16:43.267Z,92.60
2017-04-30T03:19:11.552Z,92.60
2017-04-30T03:21:39.880Z,92.70
2017-04-30T03:24:08.911Z,92.80
2017-04-30T03:26:36.843Z,92.80
2017-04-30T03:29:05.160Z,92.70
2017-04-30T03:31:33.444Z,92.50
2017-04-30T03:34:01.736Z,91.60
2017-04-30T03:36:30.063Z,91.40
2017-04-30T03:39:10.066Z,91.30
2017-04-30T03:41:50.400Z,91.60
2017-04-30T03:44:31.228Z,92.00
2017-04-30T03:47:14.304Z,92.80
2017-04-30T03:49:54.454Z,93.70
2017-04-30T03:52:34.673Z,93.70
2017-04-30T03:55:15.382Z,92.80
2017-04-30T03:57:55.691Z,93.30
2017-04-30T04:00:36.526Z,93.90
2017-04-30T04:03:16.696Z,93.60
2017-04-30T04:05:56.775Z,92.70
2017-04-30T04:08:37.760Z,92.30
2017-04-30T04:11:17.887Z,93.00
2017-04-30T04:13:58.132Z,93.50
2017-04-30T04:16:38.440Z,92.80
2017-04-30T04:19:18.608Z,92.50
2017-04-30T04:21:58.823Z,91.80
2017-04-30T04:24:38.927Z,92.60
2017-04-30T04:27:19.030Z,92.90
2017-04-30T04:29:59.317Z,92.70
2017-04-30T04:32:39.359Z,91.40
2017-04-30T04:35:19.575Z,90.10
2017-04-30T04:37:59.618Z,90.20
2017-04-30T04:40:39.988Z,89.20
2017-04-30T04:43:20.842Z,88.20
2017-04-30T04:46:01.090Z,87.20
2017-04-30T04:48:41.127Z,85.50
2017-04-30T04:51:21.391Z,84.20
2017-04-30T04:54:01.328Z,82.40
2017-04-30T04:56:41.567Z,80.50
2017-04-30T04:59:21.715Z,80.30
2017-04-30T05:02:02.010Z,78.70
2017-04-30T05:04:42.850Z,78.50
2017-04-30T05:07:23.106Z,75.60
2017-04-30T05:10:03.183Z,73.60
2017-04-30T05:12:43.600Z,72.60
2017-04-30T05:15:23.610Z,70.70
2017-04-30T05:18:04.521Z,68.80
2017-04-30T05:20:44.669Z,66.80
2017-04-30T05:23:24.903Z,65.30
2017-04-30T05:26:05.154Z,61.00
2017-04-30T05:28:45.381Z,62.50
2017-04-30T05:31:25.432Z,60.00
2017-04-30T05:34:05.639Z,58.90
2017-04-30T05:36:46.495Z,58.20
2017-04-30T05:39:26.710Z,57.40
2017-04-30T05:42:06.854Z,57.10
2017-04-30T05:44:47.104Z,56.80
2017-04-30T05:47:27.107Z,56.10
2017-04-30T05:50:07.255Z,52.40
2017-04-30T05:52:48.015Z,50.10
2017-04-30T05:55:29.068Z,49.20
2017-04-30T05:58:09.175Z,48.20
2017-04-30T06:00:49.534Z,48.60
2017-04-30T06:03:30.461Z,48.10
2017-04-30T06:06:10.827Z,46.90
2017-04-30T06:08:50.939Z,46.40
2017-04-30T06:11:31.892Z,45.70
2017-04-30T06:14:11.951Z,48.00
2017-04-30T06:16:52.128Z,49.70
2017-04-30T06:19:33.002Z,49.00
2017-04-30T06:22:13.995Z,48.70
2017-04-30T06:24:54.135Z,47.40
2017-04-30T06:27:35.152Z,45.40
2017-04-30T06:30:15.217Z,45.80
2017-04-30T06:32:55.575Z,45.50
2017-04-30T06:35:35.650Z,47.40
2017-04-30T06:38:16.707Z,47.20
2017-04-30T06:40:57.560Z,48.60
2017-04-30T06:43:37.666Z,48.10
2017-04-30T06:46:17.715Z,48.30
2017-04-30T06:48:57.987Z,49.10
2017-04-30T06:51:38.171Z,46.50
2017-04-30T06:54:18.424Z,46.60
2017-04-30T06:56:58.512Z,47.40
2017-04-30T06:59:39.550Z,47.90
2017-04-30T07:02:19.611Z,45.30
2017-04-30T07:04:59.939Z,44.90
2017-04-30T07:07:39.999Z,43.80
2017-04-30T07:10:20.187Z,43.90
2017-04-30T07:13:00.275Z,47.80
2017-04-30T07:15:41.309Z,47.20
2017-04-30T07:18:21.421Z,47.70
2017-04-30T07:21:01.771Z,47.40
2017-04-30T07:23:42.619Z,45.70
2017-04-30T07:26:22.825Z,45.20
2017-04-30T07:29:02.925Z,46.50
2017-04-30T07:31:43.202Z,47.30
2017-04-30T07:34:23.207Z,48.40
2017-04-30T07:37:04.218Z,49.40
2017-04-30T07:39:44.462Z,47.30
2017-04-30T07:42:24.612Z,47.40
2017-04-30T07:44:52.913Z,44.10
2017-04-30T07:47:21.211Z,43.90
2017-04-30T07:49:49.526Z,44.70
2017-04-30T07:52:17.824Z,43.10
2017-04-30T07:54:46.859Z,42.70
2017-04-30T07:57:15.187Z,41.80
2017-04-30T07:59:43.484Z,41.80
2017-04-30T08:02:11.787Z,42.50
2017-04-30T08:04:40.108Z,43.20
2017-04-30T08:07:08.409Z,43.00
2017-04-30T08:09:36.708Z,42.20
2017-04-30T08:12:05.775Z,41.30
2017-04-30T08:14:34.073Z,43.90
2017-04-30T08:17:03.113Z,41.70
2017-04-30T08:19:31.444Z,43.00
2017-04-30T08:21:59.739Z,43.40
2017-04-30T08:24:28.779Z,40.20
2017-04-30T08:26:57.110Z,43.90
2017-04-30T08:29:26.156Z,38.10
2017-04-30T08:31:54.464Z,36.60
2017-04-30T08:34:22.784Z,37.30
2017-04-30T08:36:51.080Z,36.10
2017-04-30T08:39:19.380Z,38.40
2017-04-30T08:41:47.703Z,39.30
2017-04-30T08:44:16.738Z,41.40
2017-04-30T08:46:45.037Z,42.30
2017-04-30T08:49:13.367Z,42.00
2017-04-30T08:51:41.672Z,40.90
2017-04-30T08:54:09.969Z,39.40
2017-04-30T08:56:38.298Z,39.60
2017-04-30T08:59:06.595Z,41.10
2017-04-30T09:01:34.942Z,38.80
2017-04-30T09:04:04.010Z,38.10
2017-04-30T09:06:32.317Z,39.60
2017-04-30T09:09:01.358Z,38.70
2017-04-30T09:11:29.680Z,37.60
2017-04-30T09:13:57.976Z,36.00
2017-04-30T09:16:26.274Z,37.00
2017-04-30T09:18:54.599Z,39.00
2017-04-30T09:21:22.902Z,38.30
2017-04-30T09:23:51.199Z,38.10
2017-04-30T09:26:19.531Z,36.50
2017-04-30T09:28:47.824Z,34.00
2017-04-30T09:31:16.126Z,36.30
2017-04-30T09:33:45.195Z,32.60
2017-04-30T09:36:13.496Z,34.60
2017-04-30T09:38:41.792Z,34.90
2017-04-30T09:41:10.109Z,34.40
2017-04-30T09:43:38.406Z,32.20
2017-04-30T09:46:06.695Z,32.20
2017-04-30T09:48:35.023Z,33.40
2017-04-30T09:51:03.318Z,34.50
2017-04-30T09:53:31.622Z,34.30
2017-04-30T09:55:59.940Z,34.10
2017-04-30T09:58:28.971Z,33.40
2017-04-30T10:00:57.275Z,36.10
2017-04-30T10:03:25.595Z,36.90
2017-04-30T10:05:53.886Z,34.60
2017-04-30T10:08:22.175Z,34.80
2017-04-30T10:10:50.503Z,34.30
2017-04-30T10:13:18.795Z,35.20
2017-04-30T10:15:47.091Z,35.50
2017-04-30T10:18:15.415Z,36.10
2017-04-30T10:20:44.453Z,36.30
2017-04-30T10:23:12.751Z,34.20
2017-04-30T10:25:41.075Z,34.70
2017-04-30T10:28:09.371Z,36.80
2017-04-30T10:30:37.667Z,34.70
2017-04-30T10:33:06.001Z,33.10
2017-04-30T10:35:34.299Z,34.00
2017-04-30T10:38:02.592Z,35.50
2017-04-30T10:40:30.909Z,31.10
2017-04-30T10:42:59.944Z,31.50
2017-04-30T10:45:28.238Z,30.40
2017-04-30T10:47:56.554Z,29.70
2017-04-30T10:50:25.587Z,29.40
2017-04-30T10:52:53.875Z,30.20
2017-04-30T10:55:22.194Z,30.00
2017-04-30T10:57:50.487Z,28.90
2017-04-30T11:00:19.527Z,30.00
2017-04-30T11:02:47.851Z,29.90
2017-04-30T11:05:16.143Z,29.90
2017-04-30T11:07:45.174Z,29.10
2017-04-30T11:10:13.498Z,31.10
2017-04-30T11:12:41.784Z,29.60
2017-04-30T11:15:10.830Z,31.60
2017-04-30T11:17:39.150Z,30.90
2017-04-30T11:20:07.443Z,32.30
2017-04-30T11:22:36.475Z,30.30
2017-04-30T11:25:04.792Z,30.90
2017-04-30T11:27:33.084Z,28.90
2017-04-30T11:30:02.119Z,32.60
2017-04-30T11:32:30.441Z,30.80
2017-04-30T11:34:58.727Z,29.30
2017-04-30T11:37:27.755Z,30.10
2017-04-30T11:39:56.083Z,27.50
2017-04-30T11:42:24.375Z,29.50
2017-04-30T11:44:53.407Z,28.60
2017-04-30T11:47:21.726Z,27.60
2017-04-30T11:49:50.023Z,28.10
2017-04-30T11:52:19.059Z,28.30
2017-04-30T11:54:47.367Z,29.30
2017-04-30T11:57:15.654Z,31.10
2017-04-30T11:59:43.970Z,29.70
2017-04-30T12:02:12.267Z,29.10
2017-04-30T12:04:40.560Z,29.90
2017-04-30T12:07:08.890Z,29.30
2017-04-30T12:09:37.922Z,28.60
2017-04-30T12:12:06.216Z,28.50
2017-04-30T12:14:34.529Z,29.30
2017-04-30T12:17:03.563Z,29.60
2017-04-30T12:19:31.850Z,29.40
2017-04-30T12:22:00.170Z,29.80
2017-04-30T12:24:28.466Z,29.30
2017-04-30T12:26:57.502Z,28.90
2017-04-30T12:29:25.823Z,29.20
2017-04-30T12:31:54.115Z,28.20
2017-04-30T12:34:23.153Z,28.10
2017-04-30T12:36:51.478Z,28.00
2017-04-30T12:39:19.772Z,28.30
2017-04-30T12:41:48.803Z,28.20
2017-04-30T12:44:17.119Z,28.90
2017-04-30T12:46:45.418Z,29.50
2017-04-30T12:49:14.459Z,28.80
2017-04-30T12:51:42.771Z,28.40
2017-04-30T12:54:11.067Z,29.50
2017-04-30T12:56:40.144Z,30.00
2017-04-30T12:59:08.430Z,32.60
2017-04-30T13:01:37.471Z,29.10
2017-04-30T13:04:05.783Z,29.00
2017-04-30T13:06:34.076Z,28.60
2017-04-30T13:09:02.371Z,29.70
2017-04-30T13:11:31.442Z,30.20
2017-04-30T13:13:59.739Z,29.80
2017-04-30T13:16:28.770Z,28.40
2017-04-30T13:18:57.090Z,28.30
2017-04-30T13:21:25.799Z,27.80
2017-04-30T13:23:54.833Z,29.10
2017-04-30T13:28:56.764Z,28.30
2017-04-30T13:31:25.096Z,29.90
2017-04-30T13:33:54.128Z,28.20
2017-04-30T13:36:22.428Z,29.20
2017-04-30T13:38:50.744Z,30.00
2017-04-30T13:41:19.770Z,29.90
2017-04-30T13:43:48.064Z,31.10
2017-04-30T13:46:16.383Z,29.50
2017-04-30T13:48:44.676Z,30.30
2017-04-30T13:51:13.427Z,29.20
2017-04-30T13:53:41.743Z,31.00
2017-04-30T13:56:10.038Z,29.00
2017-04-30T13:58:39.070Z,30.00
2017-04-30T14:01:07.398Z,28.40
2017-04-30T14:03:36.428Z,31.90
2017-04-30T14:06:04.719Z,30.40
2017-04-30T14:08:33.031Z,29.20
2017-04-30T14:11:01.328Z,30.90
2017-04-30T14:13:30.363Z,29.80
2017-04-30T14:15:58.690Z,29.40
2017-04-30T14:18:26.985Z,30.00
2017-04-30T14:20:56.019Z,31.00
2017-04-30T14:23:24.331Z,31.20
2017-04-30T14:25:52.628Z,30.90
2017-04-30T14:28:20.923Z,30.00
2017-04-30T14:30:49.244Z,30.80
2017-04-30T14:33:17.532Z,30.60
2017-04-30T14:35:45.826Z,30.90
2017-04-30T14:38:14.171Z,31.10
2017-04-30T14:40:42.516Z,31.00
2017-04-30T14:43:11.546Z,31.40
2017-04-30T14:45:39.864Z,30.00
2017-04-30T14:48:08.150Z,30.90
2017-04-30T14:50:36.443Z,32.00
2017-04-30T14:53:05.504Z,30.90
2017-04-30T14:55:33.798Z,32.10
2017-04-30T14:58:02.086Z,31.60
2017-04-30T15:00:30.400Z,30.80
2017-04-30T15:02:58.698Z,31.40
2017-04-30T15:05:26.988Z,30.00
2017-04-30T15:07:56.059Z,31.20
2017-04-30T15:10:24.354Z,30.00
2017-04-30T15:12:52.648Z,31.80
2017-04-30T15:15:21.713Z,31.40
2017-04-30T15:17:50.000Z,29.90
2017-04-30T15:20:18.292Z,28.70
2017-04-30T15:22:47.355Z,29.20
2017-04-30T15:25:15.642Z,29.10
2017-04-30T15:27:43.927Z,28.20
2017-04-30T15:30:12.256Z,28.70
2017-04-30T15:32:40.542Z,28.60
2017-04-30T15:35:08.834Z,29.50
2017-04-30T15:37:37.151Z,30.00
2017-04-30T15:40:06.179Z,31.50
2017-04-30T15:42:34.476Z,29.40
2017-04-30T15:45:02.783Z,29.60
2017-04-30T15:47:31.076Z,30.10
2017-04-30T15:49:59.371Z,29.40
2017-04-30T15:52:27.687Z,31.10
2017-04-30T15:54:55.977Z,31.00
2017-04-30T15:57:24.276Z,31.80
2017-04-30T15:59:52.603Z,30.60
2017-04-30T16:02:21.635Z,31.60
2017-04-30T16:04:49.923Z,30.50
2017-04-30T16:07:18.246Z,30.30
2017-04-30T16:09:47.284Z,31.80
2017-04-30T16:12:15.574Z,33.20
2017-04-30T16:14:43.890Z,31.10
2017-04-30T16:17:12.187Z,31.40
2017-04-30T16:19:41.218Z,31.50
2017-04-30T16:22:09.532Z,30.30
2017-04-30T16:24:37.824Z,30.90
2017-04-30T16:27:06.109Z,31.10
2017-04-30T16:29:34.426Z,30.70
2017-04-30T16:32:02.719Z,32.10
2017-04-30T16:34:31.008Z,32.70
2017-04-30T16:36:59.324Z,32.20
2017-04-30T16:39:27.614Z,32.00
2017-04-30T16:41:56.646Z,32.60
2017-04-30T16:44:24.961Z,32.00
2017-04-30T16:46:53.255Z,32.60
2017-04-30T16:49:21.552Z,32.20
2017-04-30T16:51:49.876Z,33.40
2017-04-30T16:54:18.179Z,32.40
2017-04-30T16:56:46.467Z,32.60
2017-04-30T16:59:14.787Z,33.60
2017-04-30T17:01:43.821Z,33.60
2017-04-30T17:04:12.111Z,33.50
2017-04-30T17:06:40.435Z,32.60
2017-04-30T17:09:09.463Z,33.00
2017-04-30T17:11:37.754Z,32.40
2017-04-30T17:14:06.067Z,32.80
2017-04-30T17:16:34.354Z,33.20
2017-04-30T17:19:02.643Z,32.90
2017-04-30T17:21:30.956Z,33.20
2017-04-30T17:23:59.255Z,32.80
2017-04-30T17:26:27.554Z,32.80
2017-04-30T17:28:56.621Z,33.90
2017-04-30T17:31:24.914Z,34.40
2017-04-30T17:33:53.945Z,34.70
2017-04-30T17:36:22.266Z,33.70
2017-04-30T17:38:50.555Z,33.90
2017-04-30T17:41:18.847Z,34.20
2017-04-30T17:43:47.911Z,34.10
2017-04-30T17:46:16.201Z,35.40
2017-04-30T17:48:44.501Z,35.10
2017-04-30T17:51:13.567Z,34.80
2017-04-30T17:53:41.852Z,34.90
2017-04-30T17:56:10.142Z,35.70
2017-04-30T17:58:38.462Z,36.40
2017-04-30T18:01:06.754Z,36.80
2017-04-30T18:03:35.045Z,36.40
2017-04-30T18:06:03.364Z,36.10
2017-04-30T18:08:32.403Z,37.50
2017-04-30T18:11:00.690Z,37.80
2017-04-30T18:13:29.003Z,36.90
2017-04-30T18:15:57.307Z,36.70
2017-04-30T18:18:25.602Z,37.00
2017-04-30T18:20:53.926Z,37.20
2017-04-30T18:23:22.216Z,37.60
2017-04-30T18:25:51.248Z,37.70
2017-04-30T18:28:19.575Z,38.60
2017-04-30T18:30:47.871Z,39.30
2017-04-30T18:33:16.899Z,39.60
2017-04-30T18:35:45.214Z,39.30
2017-04-30T18:38:13.503Z,39.60
2017-04-30T18:40:41.800Z,40.30
2017-04-30T18:43:10.853Z,41.10
2017-04-30T18:45:39.147Z,40.70
2017-04-30T18:48:07.435Z,41.80
2017-04-30T18:50:35.769Z,41.50
2017-04-30T18:53:04.069Z,41.60
2017-04-30T18:55:32.365Z,42.00
2017-04-30T18:58:00.689Z,42.10
2017-04-30T19:00:28.980Z,43.00
2017-04-30T19:02:57.328Z,42.80
2017-04-30T19:05:25.971Z,44.50
2017-04-30T19:07:54.263Z,44.20
2017-04-30T19:10:22.563Z,44.10
2017-04-30T19:12:50.885Z,43.80
2017-04-30T19:15:19.184Z,44.40
2017-04-30T19:17:47.484Z,44.80
2017-04-30T19:20:15.806Z,45.00
2017-04-30T19:22:44.100Z,44.30
2017-04-30T19:25:12.397Z,44.80
2017-04-30T19:27:40.717Z,44.40
2017-04-30T19:30:09.754Z,44.70
2017-04-30T19:32:38.048Z,44.90
2017-04-30T19:35:06.378Z,45.50
2017-04-30T19:37:34.680Z,46.90
2017-04-30T19:40:02.975Z,45.40
2017-04-30T19:42:31.323Z,44.70
2017-04-30T19:44:59.620Z,44.80
2017-04-30T19:47:28.657Z,45.00
2017-04-30T19:49:56.969Z,44.00
2017-04-30T19:52:25.278Z,44.20
2017-04-30T19:54:53.580Z,44.00
2017-04-30T19:57:21.903Z,44.50
2017-04-30T19:59:50.199Z,43.60
2017-04-30T20:02:19.235Z,44.00
2017-04-30T20:04:47.564Z,43.70
2017-04-30T20:07:16.607Z,44.60
2017-04-30T20:09:44.900Z,44.70
2017-04-30T20:12:13.218Z,45.70
2017-04-30T20:14:42.256Z,47.20
2017-04-30T20:17:10.552Z,48.60
2017-04-30T20:19:38.889Z,49.20
2017-04-30T20:22:07.179Z,49.60
2017-04-30T20:24:35.475Z,49.40
2017-04-30T20:27:03.811Z,51.20
2017-04-30T20:29:32.843Z,51.50
2017-04-30T20:32:01.139Z,50.80
2017-04-30T20:34:29.468Z,51.60
2017-04-30T20:36:57.759Z,50.50
2017-04-30T20:39:26.056Z,50.20
2017-04-30T20:41:54.383Z,51.80
2017-04-30T20:44:22.679Z,50.70
2017-04-30T20:46:50.967Z,50.10
2017-04-30T20:49:20.036Z,49.10
2017-04-30T20:51:48.330Z,50.10
2017-04-30T20:54:16.627Z,51.50
2017-04-30T20:56:44.950Z,51.70
2017-04-30T20:59:13.251Z,52.50
2017-04-30T21:01:41.553Z,53.00
2017-04-30T21:04:09.878Z,51.10
2017-04-30T21:06:38.170Z,52.60
2017-04-30T21:09:06.463Z,52.50
2017-04-30T21:11:35.534Z,52.20
2017-04-30T21:14:03.828Z,52.50
2017-04-30T21:16:32.127Z,51.70
2017-04-30T21:19:01.187Z,50.60
2017-04-30T21:21:29.479Z,51.50
2017-04-30T21:23:58.518Z,52.70
2017-04-30T21:26:26.851Z,52.90
2017-04-30T21:28:54.380Z,52.80
2017-04-30T21:31:22.678Z,51.00
2017-04-30T21:33:51.008Z,52.20
2017-04-30T21:36:19.305Z,53.30
2017-04-30T21:38:47.598Z,53.80
2017-04-30T21:41:15.922Z,54.80
2017-04-30T21:43:44.215Z,54.60
2017-04-30T21:46:12.502Z,57.30
2017-04-30T21:48:40.812Z,57.70
2017-04-30T21:51:09.139Z,56.80
2017-04-30T21:53:37.427Z,57.70
2017-04-30T21:56:05.739Z,57.20
2017-04-30T21:58:34.031Z,58.40
2017-04-30T22:01:02.398Z,60.00
2017-04-30T22:03:30.724Z,62.10
2017-04-30T22:05:59.026Z,61.20
2017-04-30T22:08:27.320Z,62.30
2017-04-30T22:10:55.634Z,60.60
2017-04-30T22:13:24.661Z,62.30
2017-04-30T22:15:52.951Z,62.70
2017-04-30T22:18:21.267Z,63.70
2017-04-30T22:20:49.557Z,63.20
2017-04-30T22:23:17.857Z,59.10
2017-04-30T22:25:46.179Z,58.70
2017-04-30T22:28:14.471Z,58.50
2017-04-30T22:30:42.755Z,59.40
2017-04-30T22:33:11.076Z,59.50
2017-04-30T22:35:40.108Z,58.90
2017-04-30T22:38:08.394Z,60.30
2017-04-30T22:40:36.718Z,60.80
2017-04-30T22:43:05.013Z,61.50
2017-04-30T22:45:34.039Z,62.50
2017-04-30T22:48:02.350Z,62.10
2017-04-30T22:50:30.639Z,64.10
2017-04-30T22:52:58.931Z,63.50
2017-04-30T22:55:27.248Z,63.80
2017-04-30T22:57:55.534Z,63.10
2017-04-30T23:00:23.826Z,63.70
2017-04-30T23:02:52.897Z,64.50
2017-04-30T23:05:21.186Z,64.80
2017-04-30T23:07:49.471Z,66.20
2017-04-30T23:10:18.539Z,63.60
2017-04-30T23:12:46.844Z,64.60
2017-04-30T23:15:15.130Z,63.70
2017-04-30T23:17:44.187Z,64.70
2017-04-30T23:20:12.484Z,65.00
2017-04-30T23:22:40.802Z,66.30
2017-04-30T23:25:09.123Z,67.10
2017-04-30T23:27:37.415Z,68.70
2017-04-30T23:30:05.703Z,70.40
2017-04-30T23:32:34.027Z,71.90
2017-04-30T23:35:02.315Z,73.40
2017-04-30T23:37:30.607Z,72.80
2017-04-30T23:39:58.935Z,73.00
2017-04-30T23:42:26.458Z,72.90
2017-04-30T23:44:54.752Z,74.20
2017-04-30T23:47:23.808Z,74.80
2017-04-30T23:49:52.103Z,75.90
2017-04-30T23:52:20.396Z,76.90
2017-04-30T23:54:48.715Z,77.70
2017-04-30T23:57:17.006Z,79.20
2017-04-30T23:59:45.296Z,80.00
